createdAt,value
2017-04-01T00:00:13.139Z,0
2017-04-01T00:05:13.396Z,0
2017-04-01T00:10:13.388Z,0
2017-04-01T00:15:13.346Z,0
2017-04-01T00:20:13.026Z,0
2017-04-01T00:25:12.987Z,0
2017-04-01T00:30:13.271Z,0
2017-04-01T00:35:13.244Z,0
2017-04-01T00:40:12.963Z,0
2017-04-01T00:45:12.897Z,0
2017-04-01T00:50:12.883Z,0
2017-04-01T00:55:13.156Z,0
2017-04-01T01:00:13.145Z,0
2017-04-01T01:05:13.101Z,0
2017-04-01T01:10:13.208Z,0
2017-04-01T01:15:13.063Z,0
2017-04-01T01:20:13.043Z,0
2017-04-01T01:25:12.715Z,0
2017-04-01T01:30:12.691Z,0
2017-04-01T01:35:12.631Z,0
2017-04-01T01:40:12.943Z,0
2017-04-01T01:45:12.902Z,0
2017-04-01T01:50:12.873Z,0
2017-04-01T01:55:12.842Z,0
2017-04-01T02:00:12.817Z,0
2017-04-01T02:05:12.487Z,0
2017-04-01T02:10:12.467Z,0
2017-04-01T02:15:12.751Z,0
2017-04-01T02:20:12.731Z,0
2017-04-01T02:25:12.759Z,0
2017-04-01T02:30:12.729Z,0
2017-04-01T02:35:12.719Z,0
2017-04-01T02:40:12.847Z,0
2017-04-01T02:45:12.314Z,0
2017-04-01T02:50:12.250Z,0
2017-04-01T02:55:12.546Z,0
2017-04-01T03:00:12.204Z,0
2017-04-01T03:05:12.388Z,0
2017-04-01T03:10:12.147Z,0
2017-04-01T03:15:12.432Z,0
2017-04-01T03:20:12.089Z,0
2017-04-01T03:25:12.376Z,0
2017-04-01T03:30:12.376Z,0
2017-04-01T03:35:12.014Z,0
2017-04-01T03:40:12.320Z,0
2017-04-01T03:45:12.330Z,0
2017-04-01T03:50:11.946Z,0
2017-04-01T03:55:11.994Z,0
2017-04-01T04:00:11.878Z,0
2017-04-01T04:05:12.150Z,0
2017-04-01T04:10:11.877Z,0
2017-04-01T04:15:12.096Z,0
2017-04-01T04:20:11.814Z,0
2017-04-01T04:25:12.038Z,0
2017-04-01T04:30:12.033Z,0
2017-04-01T04:35:11.680Z,0
2017-04-01T04:40:11.662Z,0
2017-04-01T04:45:11.951Z,0
2017-04-01T04:50:11.926Z,0
2017-04-01T04:55:11.612Z,0
2017-04-01T05:00:11.550Z,0
2017-04-01T05:05:11.990Z,0
2017-04-01T05:10:11.506Z,0
2017-04-01T05:15:11.778Z,0
2017-04-01T05:20:11.546Z,0
2017-04-01T05:25:11.401Z,0
2017-04-01T05:30:11.668Z,0
2017-04-01T05:35:11.351Z,0
2017-04-01T05:40:11.320Z,0
2017-04-01T05:45:11.599Z,0
2017-04-01T05:50:11.613Z,0
2017-04-01T05:55:11.254Z,0
2017-04-01T06:00:11.521Z,0
2017-04-01T06:05:11.582Z,0
2017-04-01T06:10:11.516Z,0
2017-04-01T06:15:11.496Z,0
2017-04-01T06:20:11.528Z,0
2017-04-01T06:25:11.078Z,0
2017-04-01T06:30:10.743Z,0
2017-04-01T06:35:11.317Z,0
2017-04-01T06:40:11.279Z,0
2017-04-01T06:45:10.953Z,0
2017-04-01T06:50:10.922Z,0
2017-04-01T06:55:11.222Z,0
2017-04-01T07:00:10.871Z,0
2017-04-01T07:05:11.152Z,0
2017-04-01T07:10:11.165Z,0
2017-04-01T07:15:11.090Z,0
2017-04-01T07:20:11.090Z,0
2017-04-01T07:25:11.174Z,0
2017-04-01T07:30:11.053Z,0
2017-04-01T07:35:11.007Z,0
2017-04-01T07:40:10.960Z,0
2017-04-01T07:45:10.933Z,0
2017-04-01T07:50:10.437Z,0
2017-04-01T07:55:10.870Z,0
2017-04-01T08:00:10.846Z,0
2017-04-01T08:05:10.814Z,0
2017-04-01T08:10:10.800Z,0
2017-04-01T08:15:10.774Z,0
2017-04-01T08:20:10.746Z,0
2017-04-01T08:25:10.725Z,0
2017-04-01T08:30:10.383Z,0
2017-04-01T08:35:10.705Z,0
2017-04-01T08:40:10.681Z,0
2017-04-01T08:45:10.691Z,0
2017-04-01T08:50:10.571Z,0
2017-04-01T08:55:10.305Z,0
2017-04-01T09:00:10.525Z,0
2017-04-01T09:05:10.489Z,0
2017-04-01T09:10:10.491Z,0
2017-04-01T09:15:10.468Z,0
2017-04-01T09:20:10.404Z,0
2017-04-01T09:25:10.413Z,0
2017-04-01T09:30:10.054Z,0
2017-04-01T09:35:10.412Z,0
2017-04-01T09:40:09.711Z,0
2017-04-01T09:45:10.012Z,0
2017-04-01T09:50:10.338Z,0
2017-04-01T09:55:10.349Z,0
2017-04-01T10:00:10.309Z,0
2017-04-01T10:05:09.571Z,0
2017-04-01T10:10:10.413Z,0
2017-04-01T10:15:10.138Z,0
2017-04-01T10:20:10.103Z,0
2017-04-01T10:25:10.068Z,80
2017-04-01T10:30:10.010Z,55
2017-04-01T10:35:09.985Z,50
2017-04-01T10:40:09.903Z,75
2017-04-01T10:45:09.859Z,95
2017-04-01T10:50:09.599Z,105
2017-04-01T10:55:09.146Z,90
2017-04-01T11:00:09.396Z,75
2017-04-01T11:05:09.644Z,50
2017-04-01T11:10:09.585Z,20
2017-04-01T11:15:09.584Z,15
2017-04-01T11:20:09.213Z,10
2017-04-01T11:25:09.125Z,10
2017-04-01T11:30:09.444Z,15
2017-04-01T11:35:09.558Z,10
2017-04-01T11:40:09.503Z,15
2017-04-01T11:45:09.253Z,25
2017-04-01T11:50:09.164Z,20
2017-04-01T11:55:09.096Z,30
2017-04-01T12:00:09.028Z,55
2017-04-01T12:05:08.999Z,80
2017-04-01T12:10:08.931Z,75
2017-04-01T12:15:09.213Z,65
2017-04-01T12:20:08.539Z,80
2017-04-01T12:25:08.754Z,110
2017-04-01T12:30:08.692Z,125
2017-04-01T12:35:08.370Z,140
2017-04-01T12:40:08.344Z,130
2017-04-01T12:45:08.553Z,165
2017-04-01T12:50:08.506Z,120
2017-04-01T12:55:08.149Z,70
2017-04-01T13:00:08.392Z,105
2017-04-01T13:05:08.332Z,75
2017-04-01T13:10:08.291Z,60
2017-04-01T13:15:08.238Z,135
2017-04-01T13:20:08.235Z,130
2017-04-01T13:25:08.134Z,80
2017-04-01T13:30:08.142Z,80
2017-04-01T13:35:07.737Z,75
2017-04-01T13:40:07.783Z,90
2017-04-01T13:45:07.905Z,105
2017-04-01T13:50:07.863Z,80
2017-04-01T13:55:07.821Z,90
2017-04-01T14:00:07.461Z,70
2017-04-01T14:05:07.411Z,65
2017-04-01T14:10:07.719Z,50
2017-04-01T14:15:07.354Z,75
2017-04-01T14:20:07.564Z,70
2017-04-01T14:25:07.489Z,70
2017-04-01T14:30:07.161Z,50
2017-04-01T14:35:07.387Z,30
2017-04-01T14:40:07.346Z,20
2017-04-01T14:45:07.303Z,10
2017-04-01T14:50:07.214Z,10
2017-04-01T14:55:07.252Z,10
2017-04-01T15:00:07.198Z,10
2017-04-01T15:05:07.026Z,15
2017-04-01T15:10:06.780Z,15
2017-04-01T15:15:06.899Z,10
2017-04-01T15:20:06.951Z,10
2017-04-01T15:25:06.839Z,10
2017-04-01T15:30:06.750Z,10
2017-04-01T15:35:06.729Z,10
2017-04-01T15:40:06.581Z,15
2017-04-01T15:45:06.514Z,30
2017-04-01T15:50:06.479Z,40
2017-04-01T15:55:05.915Z,35
2017-04-01T16:00:06.416Z,25
2017-04-01T16:05:06.361Z,20
2017-04-01T16:10:06.227Z,20
2017-04-01T16:15:05.946Z,20
2017-04-01T16:20:05.486Z,25
2017-04-01T16:25:05.748Z,20
2017-04-01T16:30:05.693Z,15
2017-04-01T16:35:05.365Z,10
2017-04-01T16:40:05.561Z,10
2017-04-01T16:45:05.612Z,10
2017-04-01T16:50:05.780Z,10
2017-04-01T16:55:05.605Z,5
2017-04-01T17:00:05.624Z,5
2017-04-01T17:05:05.631Z,5
2017-04-01T17:10:05.181Z,5
2017-04-01T17:15:05.152Z,5
2017-04-01T17:20:05.397Z,5
2017-04-01T17:25:04.694Z,5
2017-04-01T17:30:05.228Z,0
2017-04-01T17:35:05.169Z,0
2017-04-01T17:40:05.096Z,0
2017-04-01T17:45:04.744Z,0
2017-04-01T17:50:04.687Z,0
2017-04-01T17:55:04.651Z,0
2017-04-01T18:00:04.559Z,0
2017-04-01T18:05:04.776Z,0
2017-04-01T18:10:04.707Z,0
2017-04-01T18:15:04.667Z,0
2017-04-01T18:20:04.618Z,0
2017-04-01T18:25:04.250Z,0
2017-04-01T18:30:04.599Z,0
2017-04-01T18:35:04.429Z,0
2017-04-01T18:40:04.061Z,0
2017-04-01T18:45:04.317Z,0
2017-04-01T18:50:03.964Z,0
2017-04-01T18:55:04.193Z,0
2017-04-01T19:00:04.133Z,0
2017-04-01T19:05:04.001Z,0
2017-04-01T19:10:04.277Z,0
2017-04-01T19:15:03.651Z,0
2017-04-01T19:20:03.904Z,0
2017-04-01T19:25:03.866Z,0
2017-04-01T19:30:03.793Z,0
2017-04-01T19:35:03.723Z,0
2017-04-01T19:40:03.683Z,0
2017-04-01T19:45:03.690Z,0
2017-04-01T19:50:03.682Z,0
2017-04-01T19:55:03.470Z,0
2017-04-01T20:00:03.450Z,0
2017-04-01T20:05:03.334Z,0
2017-04-01T20:10:03.322Z,0
2017-04-01T20:15:02.962Z,0
2017-04-01T20:20:03.134Z,0
2017-04-01T20:25:03.066Z,0
2017-04-01T20:30:02.995Z,0
2017-04-01T20:35:02.928Z,0
2017-04-01T20:40:02.894Z,0
2017-04-01T20:45:02.878Z,0
2017-04-01T20:50:02.821Z,0
2017-04-01T20:55:02.662Z,0
2017-04-01T21:00:02.301Z,0
2017-04-01T21:05:02.549Z,0
2017-04-01T21:10:02.159Z,0
2017-04-01T21:15:02.117Z,0
2017-04-01T21:20:02.353Z,0
2017-04-01T21:25:02.033Z,0
2017-04-01T21:30:01.929Z,0
2017-04-01T21:35:02.210Z,0
2017-04-01T21:40:01.832Z,0
2017-04-01T21:45:02.063Z,0
